aviador You're here:

PASN Decoded Metar

ST. PAUL ISLAND in AK, USA
Report Time2018-05-21 23:53:00
UTC Time2018-05-22 00:16:20
Flight Rules vfr VFR
Wind330° at 13 Gusting to 19 kt
W.Decomp.*RWY 36: 10.0 kt HW 8.4 kt LCW
W.Rank330° ranks 6
Current wind is above 330° avg. (12.4)
Visibility9999 m
Phenomena:N/A
Clouds:Few 019 Hf
Expected CloudBase > 2,400 ft AGL from Temp-Dew spread
CeilingNone
Temp06°C (ISA -9)
Dew Point00°C (66% RH)
AAT-0.6°C
QNH1011 hPa
Density Alt-814 ft
Elevation95 ft
Report Wrong Elevation
Raw Report
PASN 212353Z AUTO 33013G19KT 10SM FEW019 06/00 A2985 RMK AO2
SLP109 T00610000 10067 20028 53005 TSNO=

Extra information for PASN:More info

Metar Taf Metar & Taf Last 4 Metars F.Rules Stats Wind Profile Meteogram Temp Stats Airport Information Weather charts Add Link Nearby VenuesMetar ALERT Operation Metar Decoded Social comments

AIRNAV info for PASN